sensor_id;sensor_type;location;lat;lon;timestamp;pressure;altitude;pressure_sealevel;temperature;humidity
62544;BME280;48597;49.030;1.822;2024-02-15T00:00:17;100941.19;;;20.11;47.09
62544;BME280;48597;49.030;1.822;2024-02-15T00:02:43;100942.44;;;20.10;47.07
62544;BME280;48597;49.030;1.822;2024-02-15T00:05:12;100938.78;;;20.10;46.79
62544;BME280;48597;49.030;1.822;2024-02-15T00:07:39;100945.31;;;20.10;46.90
62544;BME280;48597;49.030;1.822;2024-02-15T00:10:05;100935.09;;;20.09;46.89
62544;BME280;48597;49.030;1.822;2024-02-15T00:12:31;100937.97;;;20.09;46.93
62544;BME280;48597;49.030;1.822;2024-02-15T00:14:57;100927.31;;;20.10;46.65
62544;BME280;48597;49.030;1.822;2024-02-15T00:17:27;100926.53;;;20.09;46.91
62544;BME280;48597;49.030;1.822;2024-02-15T00:19:54;100917.13;;;20.09;46.70
62544;BME280;48597;49.030;1.822;2024-02-15T00:22:20;100926.53;;;20.09;46.74
62544;BME280;48597;49.030;1.822;2024-02-15T00:24:46;100922.06;;;20.08;46.86
62544;BME280;48597;49.030;1.822;2024-02-15T00:27:16;100922.06;;;20.08;46.74
62544;BME280;48597;49.030;1.822;2024-02-15T00:29:42;100922.84;;;20.09;46.72
62544;BME280;48597;49.030;1.822;2024-02-15T00:32:08;100925.72;;;20.09;46.68
62544;BME280;48597;49.030;1.822;2024-02-15T00:34:36;100918.38;;;20.08;46.78
62544;BME280;48597;49.030;1.822;2024-02-15T00:37:04;100913.47;;;20.08;46.89
62544;BME280;48597;49.030;1.822;2024-02-15T00:39:30;100922.84;;;20.09;46.51
62544;BME280;48597;49.030;1.822;2024-02-15T00:41:56;100929.84;;;20.08;46.70
62544;BME280;48597;49.030;1.822;2024-02-15T00:44:22;100938.88;;;20.06;46.78
62544;BME280;48597;49.030;1.822;2024-02-15T00:46:47;100934.84;;;20.04;46.76
62544;BME280;48597;49.030;1.822;2024-02-15T00:49:13;100935.28;;;20.02;47.01
62544;BME280;48597;49.030;1.822;2024-02-15T00:51:38;100927.50;;;20.03;46.77
62544;BME280;48597;49.030;1.822;2024-02-15T00:54:03;100936.09;;;20.03;46.89
62544;BME280;48597;49.030;1.822;2024-02-15T00:56:29;100921.78;;;20.03;46.75
62544;BME280;48597;49.030;1.822;2024-02-15T00:58:56;100922.59;;;20.03;46.73
62544;BME280;48597;49.030;1.822;2024-02-15T01:01:21;100919.28;;;20.05;46.72
62544;BME280;48597;49.030;1.822;2024-02-15T01:03:47;100922.94;;;20.05;46.91
62544;BME280;48597;49.030;1.822;2024-02-15T01:06:12;100911.50;;;20.05;46.80
62544;BME280;48597;49.030;1.822;2024-02-15T01:08:38;100904.53;;;20.06;46.88
62544;BME280;48597;49.030;1.822;2024-02-15T01:11:04;100903.63;;;20.09;46.86
62544;BME280;48597;49.030;1.822;2024-02-15T01:13:29;100907.28;;;20.10;46.70
62544;BME280;48597;49.030;1.822;2024-02-15T01:15:54;100899.06;;;20.12;46.67
62544;BME280;48597;49.030;1.822;2024-02-15T01:18:21;100900.19;;;20.14;46.63
62544;BME280;48597;49.030;1.822;2024-02-15T01:20:46;100899.66;;;20.19;46.30
62544;BME280;48597;49.030;1.822;2024-02-15T01:23:11;100891.44;;;20.21;46.48
62544;BME280;48597;49.030;1.822;2024-02-15T01:25:37;100889.25;;;20.25;46.49
62544;BME280;48597;49.030;1.822;2024-02-15T01:28:02;100890.53;;;20.24;46.53
62544;BME280;48597;49.030;1.822;2024-02-15T01:30:28;100885.13;;;20.26;46.57
62544;BME280;48597;49.030;1.822;2024-02-15T01:32:54;100880.22;;;20.27;46.55
62544;BME280;48597;49.030;1.822;2024-02-15T01:35:20;100881.38;;;20.29;46.60
62544;BME280;48597;49.030;1.822;2024-02-15T01:37:45;100887.09;;;20.29;46.60
62544;BME280;48597;49.030;1.822;2024-02-15T01:40:11;100886.19;;;20.32;46.44
62544;BME280;48597;49.030;1.822;2024-02-15T01:42:38;100886.19;;;20.32;46.60
62544;BME280;48597;49.030;1.822;2024-02-15T01:45:04;100878.75;;;20.35;46.56
62544;BME280;48597;49.030;1.822;2024-02-15T01:47:30;100883.25;;;20.36;46.36
62544;BME280;48597;49.030;1.822;2024-02-15T01:49:56;100879.16;;;20.37;46.47
62544;BME280;48597;49.030;1.822;2024-02-15T01:52:23;100874.22;;;20.38;46.38
62544;BME280;48597;49.030;1.822;2024-02-15T01:54:51;100877.88;;;20.38;46.31
62544;BME280;48597;49.030;1.822;2024-02-15T01:57:18;100871.69;;;20.40;46.43
62544;BME280;48597;49.030;1.822;2024-02-15T01:59:46;100873.28;;;20.41;46.38
62544;BME280;48597;49.030;1.822;2024-02-15T02:02:12;100863.44;;;20.42;46.45
62544;BME280;48597;49.030;1.822;2024-02-15T02:04:40;100865.06;;;20.43;46.51
62544;BME280;48597;49.030;1.822;2024-02-15T02:07:06;100863.78;;;20.44;46.54
62544;BME280;48597;49.030;1.822;2024-02-15T02:09:31;100853.59;;;20.43;46.37
62544;BME280;48597;49.030;1.822;2024-02-15T02:11:57;100856.47;;;20.43;46.26
62544;BME280;48597;49.030;1.822;2024-02-15T02:14:23;100853.94;;;20.45;46.26
62544;BME280;48597;49.030;1.822;2024-02-15T02:16:49;100857.63;;;20.45;46.48
62544;BME280;48597;49.030;1.822;2024-02-15T02:19:14;100853.16;;;20.44;46.49
62544;BME280;48597;49.030;1.822;2024-02-15T02:21:42;100844.56;;;20.44;46.35
62544;BME280;48597;49.030;1.822;2024-02-15T02:24:22;100846.16;;;20.45;46.30
62544;BME280;48597;49.030;1.822;2024-02-15T02:26:48;100841.25;;;20.46;46.13
62544;BME280;48597;49.030;1.822;2024-02-15T02:29:15;100838.72;;;20.48;46.18
62544;BME280;48597;49.030;1.822;2024-02-15T02:31:41;100841.59;;;20.48;46.19
62544;BME280;48597;49.030;1.822;2024-02-15T02:34:07;100840.00;;;20.47;46.27
62544;BME280;48597;49.030;1.822;2024-02-15T02:36:34;100837.47;;;20.49;46.29
62544;BME280;48597;49.030;1.822;2024-02-15T02:38:59;100831.75;;;20.49;46.05
62544;BME280;48597;49.030;1.822;2024-02-15T02:41:27;100822.34;;;20.48;46.07
62544;BME280;48597;49.030;1.822;2024-02-15T02:43:54;100819.84;;;20.50;46.10
62544;BME280;48597;49.030;1.822;2024-02-15T02:46:20;100815.25;;;20.53;46.01
62544;BME280;48597;49.030;1.822;2024-02-15T02:48:45;100807.59;;;20.50;46.12
62544;BME280;48597;49.030;1.822;2024-02-15T02:51:10;100804.25;;;20.51;46.21
62544;BME280;48597;49.030;1.822;2024-02-15T02:53:36;100804.25;;;20.51;46.12
62544;BME280;48597;49.030;1.822;2024-02-15T02:56:01;100807.91;;;20.52;46.07
62544;BME280;48597;49.030;1.822;2024-02-15T02:58:27;100795.66;;;20.51;46.05
62544;BME280;48597;49.030;1.822;2024-02-15T03:00:52;100793.59;;;20.52;46.12
62544;BME280;48597;49.030;1.822;2024-02-15T03:03:18;100796.94;;;20.50;45.98
62544;BME280;48597;49.030;1.822;2024-02-15T03:05:44;100795.66;;;20.51;45.95
62544;BME280;48597;49.030;1.822;2024-02-15T03:08:11;100799.31;;;20.52;45.86
62544;BME280;48597;49.030;1.822;2024-02-15T03:10:38;100796.13;;;20.50;45.92
62544;BME280;48597;49.030;1.822;2024-02-15T03:13:03;100795.34;;;20.49;46.10
62544;BME280;48597;49.030;1.822;2024-02-15T03:15:30;100795.34;;;20.49;45.98
62544;BME280;48597;49.030;1.822;2024-02-15T03:17:55;100794.53;;;20.49;45.98
62544;BME280;48597;49.030;1.822;2024-02-15T03:20:20;100785.59;;;20.47;46.23
62544;BME280;48597;49.030;1.822;2024-02-15T03:23:00;100795.78;;;20.48;46.12
62544;BME280;48597;49.030;1.822;2024-02-15T03:25:26;100778.59;;;20.48;45.85
62544;BME280;48597;49.030;1.822;2024-02-15T03:27:55;100780.66;;;20.47;46.10
62544;BME280;48597;49.030;1.822;2024-02-15T03:30:22;100774.13;;;20.47;45.82
62544;BME280;48597;49.030;1.822;2024-02-15T03:32:49;100776.19;;;20.46;45.90
62544;BME280;48597;49.030;1.822;2024-02-15T03:35:17;100777.00;;;20.47;46.22
62544;BME280;48597;49.030;1.822;2024-02-15T03:37:43;100774.94;;;20.47;45.79
62544;BME280;48597;49.030;1.822;2024-02-15T03:40:08;100783.53;;;20.47;45.96
62544;BME280;48597;49.030;1.822;2024-02-15T03:42:37;100774.13;;;20.47;46.00
62544;BME280;48597;49.030;1.822;2024-02-15T03:45:04;100778.25;;;20.46;45.80
62544;BME280;48597;49.030;1.822;2024-02-15T03:47:32;100769.66;;;20.46;46.01
62544;BME280;48597;49.030;1.822;2024-02-15T03:49:59;100766.00;;;20.45;46.13
62544;BME280;48597;49.030;1.822;2024-02-15T03:52:24;100772.53;;;20.46;45.88
62544;BME280;48597;49.030;1.822;2024-02-15T03:54:49;100769.66;;;20.46;46.04
62544;BME280;48597;49.030;1.822;2024-02-15T03:57:15;100767.59;;;20.46;45.71
62544;BME280;48597;49.030;1.822;2024-02-15T03:59:42;100771.72;;;20.45;45.90
62544;BME280;48597;49.030;1.822;2024-02-15T04:02:07;100769.66;;;20.46;45.90
62544;BME280;48597;49.030;1.822;2024-02-15T04:04:37;100758.22;;;20.46;45.92
62544;BME280;48597;49.030;1.822;2024-02-15T04:07:06;100765.53;;;20.47;45.94
62544;BME280;48597;49.030;1.822;2024-02-15T04:09:32;100758.56;;;20.48;45.87
62544;BME280;48597;49.030;1.822;2024-02-15T04:11:58;100760.63;;;20.47;45.75
62544;BME280;48597;49.030;1.822;2024-02-15T04:14:23;100757.75;;;20.47;46.04
62544;BME280;48597;49.030;1.822;2024-02-15T04:16:49;100754.91;;;20.47;46.03
62544;BME280;48597;49.030;1.822;2024-02-15T04:19:15;100757.75;;;20.47;45.91
62544;BME280;48597;49.030;1.822;2024-02-15T04:21:40;100754.09;;;20.47;45.77
62544;BME280;48597;49.030;1.822;2024-02-15T04:24:06;100756.97;;;20.47;45.96
62544;BME280;48597;49.030;1.822;2024-02-15T04:26:31;100754.91;;;20.47;45.86
62544;BME280;48597;49.030;1.822;2024-02-15T04:28:59;100753.63;;;20.48;45.69
62544;BME280;48597;49.030;1.822;2024-02-15T04:31:25;100753.63;;;20.48;45.70
62544;BME280;48597;49.030;1.822;2024-02-15T04:33:54;100747.91;;;20.48;45.71
62544;BME280;48597;49.030;1.822;2024-02-15T04:36:20;100752.84;;;20.48;45.79
62544;BME280;48597;49.030;1.822;2024-02-15T04:38:52;100748.72;;;20.49;45.75
62544;BME280;48597;49.030;1.822;2024-02-15T04:41:18;100749.53;;;20.49;45.78
62544;BME280;48597;49.030;1.822;2024-02-15T04:43:50;100749.97;;;20.48;45.89
62544;BME280;48597;49.030;1.822;2024-02-15T04:46:15;100745.84;;;20.49;45.88
62544;BME280;48597;49.030;1.822;2024-02-15T04:48:41;100749.97;;;20.48;45.97
62544;BME280;48597;49.030;1.822;2024-02-15T04:51:08;100740.94;;;20.49;45.77
62544;BME280;48597;49.030;1.822;2024-02-15T04:53:33;100740.94;;;20.49;45.75
62544;BME280;48597;49.030;1.822;2024-02-15T04:55:59;100747.47;;;20.50;45.58
62544;BME280;48597;49.030;1.822;2024-02-15T04:58:32;100738.88;;;20.50;45.69
62544;BME280;48597;49.030;1.822;2024-02-15T05:01:02;100743.00;;;20.49;45.81
62544;BME280;48597;49.030;1.822;2024-02-15T05:03:30;100739.31;;;20.48;45.60
62544;BME280;48597;49.030;1.822;2024-02-15T05:06:00;100733.16;;;20.50;45.66
62544;BME280;48597;49.030;1.822;2024-02-15T05:08:25;100730.28;;;20.50;45.51
62544;BME280;48597;49.030;1.822;2024-02-15T05:10:51;100735.19;;;20.49;45.67
62544;BME280;48597;49.030;1.822;2024-02-15T05:13:21;100729.94;;;20.48;45.77
62544;BME280;48597;49.030;1.822;2024-02-15T05:15:47;100731.53;;;20.49;45.85
62544;BME280;48597;49.030;1.822;2024-02-15T05:18:12;100732.78;;;20.48;45.67
62544;BME280;48597;49.030;1.822;2024-02-15T05:20:38;100720.88;;;20.49;45.54
62544;BME280;48597;49.030;1.822;2024-02-15T05:23:05;100732.34;;;20.49;45.54
62544;BME280;48597;49.030;1.822;2024-02-15T05:25:30;100726.63;;;20.49;45.80
62544;BME280;48597;49.030;1.822;2024-02-15T05:27:58;100719.28;;;20.48;45.90
62544;BME280;48597;49.030;1.822;2024-02-15T05:30:23;100720.09;;;20.49;45.53
62544;BME280;48597;49.030;1.822;2024-02-15T05:32:48;100714.34;;;20.49;45.50
62544;BME280;48597;49.030;1.822;2024-02-15T05:35:15;100718.81;;;20.50;45.53
62544;BME280;48597;49.030;1.822;2024-02-15T05:37:40;100712.28;;;20.49;45.80
62544;BME280;48597;49.030;1.822;2024-02-15T05:40:06;100721.34;;;20.48;45.46
62544;BME280;48597;49.030;1.822;2024-02-15T05:42:32;100722.16;;;20.48;45.76
62544;BME280;48597;49.030;1.822;2024-02-15T05:45:27;100728.66;;;20.49;45.60
62544;BME280;48597;49.030;1.822;2024-02-15T05:47:57;100725.00;;;20.48;45.46
62544;BME280;48597;49.030;1.822;2024-02-15T05:50:24;100724.56;;;20.50;45.47
62544;BME280;48597;49.030;1.822;2024-02-15T05:52:49;100710.69;;;20.48;45.54
62544;BME280;48597;49.030;1.822;2024-02-15T05:55:16;100713.56;;;20.48;45.46
62544;BME280;48597;49.030;1.822;2024-02-15T05:57:44;100714.81;;;20.47;45.43
62544;BME280;48597;49.030;1.822;2024-02-15T06:00:11;100708.28;;;20.47;45.49
62544;BME280;48597;49.030;1.822;2024-02-15T06:02:36;100708.63;;;20.49;45.46
62544;BME280;48597;49.030;1.822;2024-02-15T06:05:02;100702.91;;;20.49;45.56
62544;BME280;48597;49.030;1.822;2024-02-15T06:07:29;100712.75;;;20.48;45.48
62544;BME280;48597;49.030;1.822;2024-02-15T06:09:57;100707.03;;;20.48;45.43
62544;BME280;48597;49.030;1.822;2024-02-15T06:12:23;100707.03;;;20.48;45.34
62544;BME280;48597;49.030;1.822;2024-02-15T06:14:48;100706.22;;;20.47;45.40
62544;BME280;48597;49.030;1.822;2024-02-15T06:17:14;100705.78;;;20.49;45.59
62544;BME280;48597;49.030;1.822;2024-02-15T06:19:39;100705.78;;;20.49;45.36
62544;BME280;48597;49.030;1.822;2024-02-15T06:22:05;100708.63;;;20.49;45.41
62544;BME280;48597;49.030;1.822;2024-02-15T06:24:30;100700.03;;;20.49;45.25
62544;BME280;48597;49.030;1.822;2024-02-15T06:26:56;100706.56;;;20.49;45.36
62544;BME280;48597;49.030;1.822;2024-02-15T06:29:25;100707.38;;;20.50;45.45
62544;BME280;48597;49.030;1.822;2024-02-15T06:32:09;100708.63;;;20.49;45.31
62544;BME280;48597;49.030;1.822;2024-02-15T06:34:53;100700.84;;;20.49;45.41
62544;BME280;48597;49.030;1.822;2024-02-15T06:37:38;100697.19;;;20.49;45.37
62544;BME280;48597;49.030;1.822;2024-02-15T06:40:23;100676.34;;;20.48;45.48
62544;BME280;48597;49.030;1.822;2024-02-15T06:42:48;100667.75;;;20.48;45.28
62544;BME280;48597;49.030;1.822;2024-02-15T06:45:14;100670.16;;;20.50;45.17
62544;BME280;48597;49.030;1.822;2024-02-15T06:47:43;100670.94;;;20.50;45.25
62544;BME280;48597;49.030;1.822;2024-02-15T06:50:15;100664.44;;;20.50;45.36
62544;BME280;48597;49.030;1.822;2024-02-15T06:52:42;100655.03;;;20.49;45.17
62544;BME280;48597;49.030;1.822;2024-02-15T06:55:08;100658.69;;;20.50;45.19
62544;BME280;48597;49.030;1.822;2024-02-15T06:57:34;100656.28;;;20.48;45.29
62544;BME280;48597;49.030;1.822;2024-02-15T07:00:03;100659.16;;;20.48;45.35
62544;BME280;48597;49.030;1.822;2024-02-15T07:02:33;100654.69;;;20.47;45.36
62544;BME280;48597;49.030;1.822;2024-02-15T07:04:58;100656.28;;;20.48;45.23
62544;BME280;48597;49.030;1.822;2024-02-15T07:07:24;100653.88;;;20.47;45.28
62544;BME280;48597;49.030;1.822;2024-02-15T07:09:50;100653.88;;;20.47;45.11
62544;BME280;48597;49.030;1.822;2024-02-15T07:12:16;100663.72;;;20.46;45.15
62544;BME280;48597;49.030;1.822;2024-02-15T07:14:41;100653.09;;;20.46;45.61
62544;BME280;48597;49.030;1.822;2024-02-15T07:17:06;100658.00;;;20.46;45.40
62544;BME280;48597;49.030;1.822;2024-02-15T07:19:32;100658.81;;;20.46;45.23
62544;BME280;48597;49.030;1.822;2024-02-15T07:22:02;100663.72;;;20.46;45.42
62544;BME280;48597;49.030;1.822;2024-02-15T07:24:27;100662.47;;;20.47;45.22
62544;BME280;48597;49.030;1.822;2024-02-15T07:26:53;100660.88;;;20.46;45.16
62544;BME280;48597;49.030;1.822;2024-02-15T07:29:21;100650.69;;;20.45;45.28
62544;BME280;48597;49.030;1.822;2024-02-15T07:31:49;100650.69;;;20.45;45.30
62544;BME280;48597;49.030;1.822;2024-02-15T07:34:14;100653.53;;;20.45;45.36
62544;BME280;48597;49.030;1.822;2024-02-15T07:36:39;100648.28;;;20.43;45.59
62544;BME280;48597;49.030;1.822;2024-02-15T07:39:07;100643.81;;;20.42;45.48
62544;BME280;48597;49.030;1.822;2024-02-15T07:41:37;100648.72;;;20.42;45.32
62544;BME280;48597;49.030;1.822;2024-02-15T07:44:02;100649.97;;;20.41;45.23
62544;BME280;48597;49.030;1.822;2024-02-15T07:46:28;100649.97;;;20.41;45.41
62544;BME280;48597;49.030;1.822;2024-02-15T07:48:54;100646.31;;;20.40;45.40
62544;BME280;48597;49.030;1.822;2024-02-15T07:51:22;100645.53;;;20.40;45.31
62544;BME280;48597;49.030;1.822;2024-02-15T07:53:48;100643.91;;;20.39;45.24
62544;BME280;48597;49.030;1.822;2024-02-15T07:56:15;100636.63;;;20.38;45.44
62544;BME280;48597;49.030;1.822;2024-02-15T07:58:45;100640.28;;;20.38;45.36
62544;BME280;48597;49.030;1.822;2024-02-15T08:01:15;100630.88;;;20.38;45.27
62544;BME280;48597;49.030;1.822;2024-02-15T08:03:41;100632.47;;;20.39;45.18
62544;BME280;48597;49.030;1.822;2024-02-15T08:06:13;100621.00;;;20.39;45.29
62544;BME280;48597;49.030;1.822;2024-02-15T08:08:40;100622.63;;;20.40;45.11
62544;BME280;48597;49.030;1.822;2024-02-15T08:11:12;100614.38;;;20.42;45.15
62544;BME280;48597;49.030;1.822;2024-02-15T08:13:51;100611.84;;;20.44;45.12
62544;BME280;48597;49.030;1.822;2024-02-15T08:16:20;100614.59;;;20.47;44.88
62544;BME280;48597;49.030;1.822;2024-02-15T08:18:48;100608.41;;;20.49;44.91
62544;BME280;48597;49.030;1.822;2024-02-15T08:21:14;100601.75;;;20.52;45.02
62544;BME280;48597;49.030;1.822;2024-02-15T08:23:40;100613.19;;;20.52;44.97
62544;BME280;48597;49.030;1.822;2024-02-15T08:26:05;100602.44;;;20.56;44.90
62544;BME280;48597;49.030;1.822;2024-02-15T08:28:30;100608.97;;;20.56;44.91
62544;BME280;48597;49.030;1.822;2024-02-15T08:30:56;100608.84;;;20.60;44.71
62544;BME280;48597;49.030;1.822;2024-02-15T08:33:24;100598.53;;;20.62;44.75
62544;BME280;48597;49.030;1.822;2024-02-15T08:35:53;100593.13;;;20.64;44.63
62544;BME280;48597;49.030;1.822;2024-02-15T08:38:20;100589.47;;;20.64;44.71
62544;BME280;48597;49.030;1.822;2024-02-15T08:40:46;100584.00;;;20.57;44.99
62544;BME280;48597;49.030;1.822;2024-02-15T08:43:12;100589.38;;;20.55;45.17
62544;BME280;48597;49.030;1.822;2024-02-15T08:45:38;100578.38;;;20.53;45.14
62544;BME280;48597;49.030;1.822;2024-02-15T08:48:04;100574.72;;;20.53;45.15
62544;BME280;48597;49.030;1.822;2024-02-15T08:50:30;100569.78;;;20.53;45.02
62544;BME280;48597;49.030;1.822;2024-02-15T08:52:55;100565.31;;;20.52;45.31
62544;BME280;48597;49.030;1.822;2024-02-15T08:55:21;100565.31;;;20.52;45.33
62544;BME280;48597;49.030;1.822;2024-02-15T08:57:52;100562.94;;;20.51;45.23
62544;BME280;48597;49.030;1.822;2024-02-15T09:00:18;100554.34;;;20.51;45.18
62544;BME280;48597;49.030;1.822;2024-02-15T09:02:44;100555.63;;;20.50;45.35
62544;BME280;48597;49.030;1.822;2024-02-15T09:05:10;100557.69;;;20.49;45.47
62544;BME280;48597;49.030;1.822;2024-02-15T09:07:35;100546.22;;;20.49;45.35
62544;BME280;48597;49.030;1.822;2024-02-15T09:10:05;100542.56;;;20.49;45.51
62544;BME280;48597;49.030;1.822;2024-02-15T09:12:32;100537.63;;;20.49;45.53
62544;BME280;48597;49.030;1.822;2024-02-15T09:14:57;100526.66;;;20.48;45.38
62544;BME280;48597;49.030;1.822;2024-02-15T09:17:23;100524.59;;;20.48;45.42
62544;BME280;48597;49.030;1.822;2024-02-15T09:19:49;100515.19;;;20.48;45.71
62544;BME280;48597;49.030;1.822;2024-02-15T09:22:15;100518.06;;;20.48;45.51
62544;BME280;48597;49.030;1.822;2024-02-15T09:24:40;100516.47;;;20.47;45.75
62544;BME280;48597;49.030;1.822;2024-02-15T09:27:07;100519.31;;;20.47;45.58
62544;BME280;48597;49.030;1.822;2024-02-15T09:29:33;100520.91;;;20.48;45.65
62544;BME280;48597;49.030;1.822;2024-02-15T09:31:58;100522.19;;;20.47;45.80
62544;BME280;48597;49.030;1.822;2024-02-15T09:34:27;100510.72;;;20.47;45.68
62544;BME280;48597;49.030;1.822;2024-02-15T09:36:52;100504.66;;;20.45;45.66
62544;BME280;48597;49.030;1.822;2024-02-15T09:39:17;100500.53;;;20.46;45.75
62544;BME280;48597;49.030;1.822;2024-02-15T09:41:43;100503.41;;;20.46;45.66
62544;BME280;48597;49.030;1.822;2024-02-15T09:44:09;100503.41;;;20.46;45.67
62544;BME280;48597;49.030;1.822;2024-02-15T09:46:36;100498.59;;;20.43;45.78
62544;BME280;48597;49.030;1.822;2024-02-15T09:49:01;100501.81;;;20.45;45.68
62544;BME280;48597;49.030;1.822;2024-02-15T09:51:29;100505.94;;;20.44;45.76
62544;BME280;48597;49.030;1.822;2024-02-15T09:53:59;100505.13;;;20.43;45.67
62544;BME280;48597;49.030;1.822;2024-02-15T09:56:26;100505.13;;;20.43;45.75
62544;BME280;48597;49.030;1.822;2024-02-15T09:58:54;100496.53;;;20.43;45.67
62544;BME280;48597;49.030;1.822;2024-02-15T10:01:23;100492.88;;;20.43;45.86
62544;BME280;48597;49.030;1.822;2024-02-15T10:03:50;100497.78;;;20.42;45.86
62544;BME280;48597;49.030;1.822;2024-02-15T10:06:17;100493.34;;;20.41;45.85
62544;BME280;48597;49.030;1.822;2024-02-15T10:08:43;100495.41;;;20.41;45.83
62544;BME280;48597;49.030;1.822;2024-02-15T10:11:10;100495.41;;;20.41;45.80
62544;BME280;48597;49.030;1.822;2024-02-15T10:13:36;100485.22;;;20.40;45.70
62544;BME280;48597;49.030;1.822;2024-02-15T10:16:18;100492.53;;;20.41;45.82
62544;BME280;48597;49.030;1.822;2024-02-15T10:18:47;100496.66;;;20.40;45.88
62544;BME280;48597;49.030;1.822;2024-02-15T10:21:28;100494.59;;;20.40;46.04
62544;BME280;48597;49.030;1.822;2024-02-15T10:24:08;100501.91;;;20.41;45.88
62544;BME280;48597;49.030;1.822;2024-02-15T10:26:35;100495.84;;;20.39;46.21
62544;BME280;48597;49.030;1.822;2024-02-15T10:29:11;100495.41;;;20.41;46.11
62544;BME280;48597;49.030;1.822;2024-02-15T10:31:39;100481.88;;;20.41;45.88
62544;BME280;48597;49.030;1.822;2024-02-15T10:34:06;100472.50;;;20.41;45.94
62544;BME280;48597;49.030;1.822;2024-02-15T10:36:36;100468.03;;;20.40;46.05
62544;BME280;48597;49.030;1.822;2024-02-15T10:39:15;100465.16;;;20.40;46.09
62544;BME280;48597;49.030;1.822;2024-02-15T10:41:44;100464.38;;;20.39;45.80
62544;BME280;48597;49.030;1.822;2024-02-15T10:44:15;100460.69;;;20.39;45.93
62544;BME280;48597;49.030;1.822;2024-02-15T10:46:41;100450.56;;;20.38;46.03
62544;BME280;48597;49.030;1.822;2024-02-15T10:49:07;100439.91;;;20.38;46.04
62544;BME280;48597;49.030;1.822;2024-02-15T10:51:34;100442.75;;;20.38;45.88
62544;BME280;48597;49.030;1.822;2024-02-15T10:54:06;100434.94;;;20.39;45.85
62544;BME280;48597;49.030;1.822;2024-02-15T10:56:43;100432.56;;;20.37;46.04
62544;BME280;48597;49.030;1.822;2024-02-15T10:59:19;100426.84;;;20.37;45.93
62544;BME280;48597;49.030;1.822;2024-02-15T11:01:49;100431.78;;;20.37;45.94
62544;BME280;48597;49.030;1.822;2024-02-15T11:04:20;100422.38;;;20.36;45.95
62544;BME280;48597;49.030;1.822;2024-02-15T11:06:54;100421.13;;;20.37;45.90
62544;BME280;48597;49.030;1.822;2024-02-15T11:09:21;100419.53;;;20.36;45.91
62544;BME280;48597;49.030;1.822;2024-02-15T11:11:47;100408.06;;;20.36;46.19
62544;BME280;48597;49.030;1.822;2024-02-15T11:14:32;100403.16;;;20.37;45.96
62544;BME280;48597;49.030;1.822;2024-02-15T11:16:59;100406.44;;;20.35;46.17
62544;BME280;48597;49.030;1.822;2024-02-15T11:22:01;100404.41;;;20.36;46.09
62544;BME280;48597;49.030;1.822;2024-02-15T11:24:30;100396.63;;;20.36;46.03
62544;BME280;48597;49.030;1.822;2024-02-15T11:27:06;100400.72;;;20.35;46.23
62544;BME280;48597;49.030;1.822;2024-02-15T11:35:23;100372.09;;;20.35;46.37
62544;BME280;48597;49.030;1.822;2024-02-15T11:43:45;100368.91;;;20.33;46.29
62544;BME280;48597;49.030;1.822;2024-02-15T11:46:16;100365.22;;;20.32;46.39
62544;BME280;48597;49.030;1.822;2024-02-15T11:48:45;100360.31;;;20.33;46.46
62544;BME280;48597;49.030;1.822;2024-02-15T11:51:33;100348.84;;;20.33;46.51
62544;BME280;48597;49.030;1.822;2024-02-15T11:59:08;100334.53;;;20.33;46.48
62544;BME280;48597;49.030;1.822;2024-02-15T12:01:38;100329.63;;;20.33;46.29
62544;BME280;48597;49.030;1.822;2024-02-15T12:04:22;100318.16;;;20.33;46.43
62544;BME280;48597;49.030;1.822;2024-02-15T12:07:06;100314.50;;;20.33;46.50
62544;BME280;48597;49.030;1.822;2024-02-15T12:09:58;100306.72;;;20.33;46.35
62544;BME280;48597;49.030;1.822;2024-02-15T12:12:53;100319.44;;;20.32;46.49
62544;BME280;48597;49.030;1.822;2024-02-15T12:15:37;100308.44;;;20.31;46.36
62544;BME280;48597;49.030;1.822;2024-02-15T12:18:21;100302.72;;;20.31;46.58
62544;BME280;48597;49.030;1.822;2024-02-15T12:21:08;100311.31;;;20.31;46.41
62544;BME280;48597;49.030;1.822;2024-02-15T12:23:37;100301.13;;;20.30;46.43
62544;BME280;48597;49.030;1.822;2024-02-15T12:26:03;100306.38;;;20.31;46.50
62544;BME280;48597;49.030;1.822;2024-02-15T12:28:30;100300.66;;;20.31;46.44
62544;BME280;48597;49.030;1.822;2024-02-15T12:30:55;100287.63;;;20.30;46.27
62544;BME280;48597;49.030;1.822;2024-02-15T12:33:22;100285.56;;;20.31;46.35
62544;BME280;48597;49.030;1.822;2024-02-15T12:35:47;100285.56;;;20.31;46.40
62544;BME280;48597;49.030;1.822;2024-02-15T12:38:13;100274.56;;;20.29;46.19
62544;BME280;48597;49.030;1.822;2024-02-15T12:40:41;100268.38;;;20.31;46.48
62544;BME280;48597;49.030;1.822;2024-02-15T12:43:08;100256.94;;;20.31;46.46
62544;BME280;48597;49.030;1.822;2024-02-15T12:45:41;100251.66;;;20.29;46.46
62544;BME280;48597;49.030;1.822;2024-02-15T12:48:08;100250.06;;;20.28;46.57
62544;BME280;48597;49.030;1.822;2024-02-15T12:50:34;100248.00;;;20.29;46.44
62544;BME280;48597;49.030;1.822;2024-02-15T12:53:00;100242.28;;;20.29;46.43
62544;BME280;48597;49.030;1.822;2024-02-15T12:55:30;100245.47;;;20.31;46.43
62544;BME280;48597;49.030;1.822;2024-02-15T12:58:06;100237.38;;;20.29;46.44
62544;BME280;48597;49.030;1.822;2024-02-15T13:00:35;100229.56;;;20.30;46.63
62544;BME280;48597;49.030;1.822;2024-02-15T13:03:08;100228.78;;;20.29;46.62
62544;BME280;48597;49.030;1.822;2024-02-15T13:05:38;100233.69;;;20.29;46.60
62544;BME280;48597;49.030;1.822;2024-02-15T13:08:04;100226.25;;;20.31;46.73
62544;BME280;48597;49.030;1.822;2024-02-15T13:10:38;100218.34;;;20.36;46.60
62544;BME280;48597;49.030;1.822;2024-02-15T13:13:04;100212.81;;;20.41;46.25